Time;durP1;ratioP1;P1;durP2;ratioP2;P2;SDS_P1;SDS_P2;PMS_P1;PMS_P2;Temp;Humidity;BMP_temperature;BMP_pressure;BME280_temperature;BME280_humidity;BME280_pressure;Samples;Min_cycle;Max_cycle;Signal;HPM_P1;HPM_P2
2023/08/02 00:02:03;;;;;;;1.33;0.88;;;21.90;64.20;;;;;;5135832;27;20216;-55
2023/08/02 00:05:10;;;;;;;0.80;0.80;;;22.00;64.30;;;;;;5135201;27;20189;-57
2023/08/02 00:07:39;;;;;;;1.38;0.80;;;22.00;64.30;;;;;;5098020;28;20217;-57
2023/08/02 00:12:51;;;;;;;0.93;0.82;;;22.00;64.40;;;;;;5114832;28;20197;-57
2023/08/02 00:15:19;;;;;;;1.35;0.60;;;22.00;64.40;;;;;;5115318;28;20263;-53
2023/08/02 00:17:46;;;;;;;0.80;0.60;;;21.90;64.40;;;;;;5114740;28;20233;-55
2023/08/02 00:20:14;;;;;;;0.40;0.40;;;22.00;64.60;;;;;;5115195;28;20193;-57
2023/08/02 00:22:43;;;;;;;2.15;0.85;;;21.90;64.40;;;;;;5115291;28;20221;-57
2023/08/02 00:25:11;;;;;;;1.65;0.80;;;22.00;64.60;;;;;;5115126;28;20189;-58
2023/08/02 00:27:38;;;;;;;0.82;0.68;;;22.00;64.60;;;;;;5115018;28;20221;-56
2023/08/02 00:30:07;;;;;;;1.10;0.80;;;21.90;64.60;;;;;;5114654;28;20217;-57
2023/08/02 00:32:43;;;;;;;0.60;0.60;;;22.00;64.70;;;;;;5115086;28;20248;-57
2023/08/02 00:35:12;;;;;;;1.38;0.65;;;22.00;64.80;;;;;;5114544;28;20229;-57
2023/08/02 00:37:39;;;;;;;1.10;0.60;;;22.00;64.80;;;;;;5114813;28;20275;-58
2023/08/02 00:40:10;;;;;;;1.48;0.60;;;21.90;64.80;;;;;;5115089;28;20193;-58
2023/08/02 00:42:38;;;;;;;0.52;0.52;;;22.00;64.90;;;;;;5114957;28;20274;-58
2023/08/02 00:45:06;;;;;;;0.80;0.60;;;21.90;64.80;;;;;;5114741;28;20192;-57
2023/08/02 00:47:35;;;;;;;0.68;0.68;;;22.00;64.90;;;;;;5114573;28;20213;-57
2023/08/02 00:50:04;;;;;;;1.00;0.80;;;22.00;65.00;;;;;;5114601;28;20193;-56
2023/08/02 00:52:32;;;;;;;0.80;0.70;;;21.90;64.90;;;;;;5114641;28;20217;-56
2023/08/02 00:55:00;;;;;;;1.25;0.75;;;22.00;65.00;;;;;;5114335;28;20193;-59
2023/08/02 00:57:30;;;;;;;1.45;0.68;;;21.90;65.00;;;;;;5114256;28;20213;-59
2023/08/02 01:00:00;;;;;;;0.60;0.50;;;22.00;65.10;;;;;;5114475;28;20193;-57
2023/08/02 01:06:11;;;;;;;1.08;0.73;;;22.00;65.30;;;;;;5128098;27;20188;-56
2023/08/02 01:08:42;;;;;;;1.25;0.60;;;22.00;65.30;;;;;;5134403;27;20213;-58
2023/08/02 01:11:17;;;;;;;1.25;0.70;;;21.90;65.20;;;;;;5134666;27;20220;-56
2023/08/02 01:13:53;;;;;;;0.82;0.70;;;22.00;65.30;;;;;;5134698;27;20191;-59
2023/08/02 01:16:23;;;;;;;1.33;0.80;;;21.90;65.20;;;;;;5134528;27;20216;-58
2023/08/02 01:18:55;;;;;;;0.98;0.60;;;21.90;65.20;;;;;;5134527;27;20212;-60
2023/08/02 01:21:24;;;;;;;2.10;0.82;;;21.90;65.30;;;;;;5134322;27;20228;-54
2023/08/02 01:23:52;;;;;;;2.55;0.80;;;22.00;65.50;;;;;;5134462;27;20188;-57
2023/08/02 01:26:21;;;;;;;2.75;0.90;;;21.90;65.30;;;;;;5134369;27;20223;-55
2023/08/02 01:28:53;;;;;;;3.10;1.02;;;21.90;65.40;;;;;;5134483;27;20184;-57
2023/08/02 01:31:32;;;;;;;;;;;;;;;;;;;;;
2023/08/02 01:34:00;;;;;;;1.67;0.65;;;22.00;65.50;;;;;;5133898;27;20227;-54
2023/08/02 01:36:29;;;;;;;5.18;1.10;;;22.00;65.60;;;;;;5134398;27;20221;-57
2023/08/02 01:38:57;;;;;;;3.00;1.10;;;22.00;65.60;;;;;;5134419;27;20224;-53
2023/08/02 01:41:25;;;;;;;5.95;1.33;;;21.90;65.50;;;;;;5134237;27;20216;-56
2023/08/02 01:43:52;;;;;;;4.18;1.33;;;22.00;65.60;;;;;;5134080;27;20185;-57
2023/08/02 01:46:22;;;;;;;4.10;1.40;;;22.00;65.70;;;;;;5134294;27;20218;-54
2023/08/02 01:48:49;;;;;;;4.35;1.52;;;21.90;65.60;;;;;;5133717;27;20188;-55
2023/08/02 01:51:17;;;;;;;3.58;1.10;;;21.90;65.60;;;;;;5133897;27;20216;-58
2023/08/02 01:53:46;;;;;;;4.28;1.33;;;22.00;65.70;;;;;;5133533;27;20189;-54
2023/08/02 01:56:14;;;;;;;5.68;1.33;;;21.90;65.70;;;;;;5133996;27;20301;-58
2023/08/02 01:58:41;;;;;;;5.15;1.40;;;21.90;65.70;;;;;;5133762;27;20217;-57
2023/08/02 02:01:09;;;;;;;4.30;1.50;;;21.90;65.70;;;;;;5133479;27;20208;-58
2023/08/02 02:04:07;;;;;;;4.25;1.60;;;21.90;65.80;;;;;;5133129;27;20192;-56
2023/08/02 02:07:21;;;;;;;5.00;1.73;;;22.00;65.80;;;;;;5115476;27;20217;-57
2023/08/02 02:09:50;;;;;;;4.20;1.55;;;21.90;65.80;;;;;;5113137;28;20197;-55
2023/08/02 02:12:18;;;;;;;5.85;1.60;;;21.90;65.80;;;;;;5113391;28;20228;-56
2023/08/02 02:14:47;;;;;;;4.15;1.33;;;21.90;65.80;;;;;;5112758;28;20185;-56
2023/08/02 02:17:14;;;;;;;4.95;1.50;;;21.90;65.80;;;;;;5112712;28;20249;-57
2023/08/02 02:19:42;;;;;;;5.32;1.27;;;21.90;65.80;;;;;;5112888;28;20213;-55
2023/08/02 02:22:10;;;;;;;3.38;1.25;;;21.90;65.90;;;;;;5112954;28;20266;-56
2023/08/02 02:24:41;;;;;;;3.60;1.05;;;21.90;65.90;;;;;;5112109;28;20198;-56
2023/08/02 02:27:10;;;;;;;5.40;1.30;;;21.90;65.90;;;;;;5112839;28;20213;-58
2023/08/02 02:29:38;;;;;;;2.58;1.10;;;21.90;65.90;;;;;;5112848;28;20197;-57
2023/08/02 02:32:06;;;;;;;2.72;1.20;;;21.90;65.90;;;;;;5112733;28;20220;-56
2023/08/02 02:34:34;;;;;;;3.50;1.35;;;21.90;65.90;;;;;;5112631;28;20229;-56
2023/08/02 02:37:02;;;;;;;2.25;1.13;;;21.90;65.90;;;;;;5112855;28;20221;-56
2023/08/02 02:39:29;;;;;;;5.88;1.63;;;21.90;65.90;;;;;;5112700;28;20217;-56
2023/08/02 02:41:57;;;;;;;2.70;1.23;;;21.90;66.00;;;;;;5112670;28;20270;-58
2023/08/02 02:44:40;;;;;;;6.45;2.08;;;21.90;66.00;;;;;;5112381;28;20185;-58
2023/08/02 02:49:49;;;;;;;4.25;1.25;;;21.90;66.00;;;;;;5110858;28;20205;-59
2023/08/02 02:52:16;;;;;;;3.40;1.13;;;21.90;66.00;;;;;;5112571;28;20216;-54
2023/08/02 02:54:44;;;;;;;4.88;1.30;;;21.90;66.00;;;;;;5112277;28;20189;-52
2023/08/02 02:57:18;;;;;;;3.40;1.30;;;21.90;66.00;;;;;;5112506;28;20301;-58
2023/08/02 02:59:48;;;;;;;4.22;1.40;;;21.90;66.00;;;;;;5112167;28;20217;-57
2023/08/02 03:02:16;;;;;;;5.45;1.50;;;21.90;66.00;;;;;;5112472;28;20209;-56
2023/08/02 03:04:44;;;;;;;3.25;1.25;;;21.90;66.00;;;;;;5112399;28;20186;-55
2023/08/02 03:07:12;;;;;;;3.47;1.48;;;21.90;66.00;;;;;;5112536;28;20296;-56
2023/08/02 03:09:39;;;;;;;5.70;1.50;;;21.80;65.90;;;;;;5112477;28;20181;-56
2023/08/02 03:12:08;;;;;;;4.18;1.50;;;21.90;66.10;;;;;;5112413;28;20221;-58
2023/08/02 03:14:36;;;;;;;4.00;1.20;;;21.90;66.10;;;;;;5112480;28;20185;-54
2023/08/02 03:17:34;;;;;;;;;;;;;;;;;;;;;
2023/08/02 03:20:02;;;;;;;6.43;1.77;;;21.90;66.10;;;;;;5115882;28;20685;-58
2023/08/02 03:22:30;;;;;;;3.83;1.75;;;21.90;66.10;;;;;;5116368;28;20217;-60
2023/08/02 03:24:58;;;;;;;5.38;1.60;;;21.90;66.10;;;;;;5116283;28;20182;-55
2023/08/02 03:27:26;;;;;;;4.65;1.40;;;21.90;66.20;;;;;;5116212;28;20294;-55
2023/08/02 03:29:53;;;;;;;3.90;1.40;;;21.80;66.00;;;;;;5115872;28;20280;-61
2023/08/02 03:32:22;;;;;;;7.65;1.70;;;21.90;66.20;;;;;;5115884;28;20245;-61
2023/08/02 03:34:49;;;;;;;5.53;1.58;;;21.80;66.10;;;;;;5115975;28;20233;-60
2023/08/02 03:37:17;;;;;;;7.53;2.05;;;21.90;66.20;;;;;;5116001;28;20228;-61
2023/08/02 03:39:45;;;;;;;6.18;1.75;;;21.90;67.00;;;;;;5115904;28;20220;-59
2023/08/02 03:42:12;;;;;;;7.13;1.58;;;21.80;66.10;;;;;;5115712;28;20209;-60
2023/08/02 03:44:40;;;;;;;6.78;2.03;;;21.80;66.10;;;;;;5115970;28;20197;-56
2023/08/02 03:47:17;;;;;;;7.30;2.50;;;21.90;66.30;;;;;;5115666;28;20219;-61
2023/08/02 03:49:46;;;;;;;5.72;2.10;;;21.80;66.10;;;;;;5063442;28;20238;-58
2023/08/02 03:52:14;;;;;;;7.72;2.00;;;21.90;66.30;;;;;;5115534;28;20223;-59
2023/08/02 03:54:42;;;;;;;5.70;1.70;;;21.80;66.10;;;;;;5115669;28;20264;-57
2023/08/02 03:57:09;;;;;;;8.20;2.20;;;21.80;66.20;;;;;;5115181;28;20225;-58
2023/08/02 03:59:37;;;;;;;7.93;2.30;;;21.90;66.30;;;;;;5115259;28;20709;-59
2023/08/02 04:02:05;;;;;;;8.10;2.15;;;21.80;66.20;;;;;;5115362;28;20224;-60
2023/08/02 04:04:32;;;;;;;9.68;2.28;;;21.80;66.10;;;;;;5115912;27;20181;-59
2023/08/02 04:07:01;;;;;;;6.25;1.65;;;21.80;66.20;;;;;;5135610;27;20307;-59
2023/08/02 04:09:29;;;;;;;8.88;2.50;;;21.90;66.30;;;;;;5136213;27;20185;-61
2023/08/02 04:11:59;;;;;;;6.40;2.15;;;21.90;66.30;;;;;;5135792;27;20220;-61
2023/08/02 04:14:27;;;;;;;7.45;2.03;;;21.80;66.20;;;;;;5136040;27;20188;-60
2023/08/02 04:16:55;;;;;;;5.45;2.47;;;21.90;66.30;;;;;;5135356;27;20265;-59
2023/08/02 04:19:22;;;;;;;10.90;2.55;;;21.80;66.10;;;;;;5135327;27;20223;-58
2023/08/02 04:21:50;;;;;;;8.25;2.67;;;21.80;66.10;;;;;;5135340;27;20303;-60
2023/08/02 04:24:19;;;;;;;11.48;2.35;;;21.90;66.30;;;;;;5135676;27;20188;-59
2023/08/02 04:26:46;;;;;;;10.70;2.80;;;21.90;66.30;;;;;;5135084;27;20270;-58
2023/08/02 04:29:14;;;;;;;9.30;2.60;;;21.80;66.10;;;;;;5135591;27;20275;-60
2023/08/02 04:31:41;;;;;;;9.25;2.83;;;21.80;66.10;;;;;;5135282;27;20261;-58
2023/08/02 04:34:09;;;;;;;8.70;2.50;;;21.80;66.10;;;;;;5135246;27;20277;-56
2023/08/02 04:36:36;;;;;;;9.57;2.42;;;21.80;66.10;;;;;;5135195;27;20217;-58
2023/08/02 04:39:06;;;;;;;7.47;2.42;;;21.80;66.10;;;;;;5135447;27;20216;-54
2023/08/02 04:41:36;;;;;;;10.93;2.60;;;21.80;66.00;;;;;;5135189;27;20709;-59
2023/08/02 04:44:03;;;;;;;7.82;2.35;;;21.80;66.00;;;;;;5135167;27;20180;-56
2023/08/02 04:46:31;;;;;;;12.88;2.60;;;21.80;66.00;;;;;;5135458;27;20185;-58
2023/08/02 04:48:59;;;;;;;8.93;2.33;;;21.80;66.00;;;;;;5135074;27;20203;-56
2023/08/02 04:51:26;;;;;;;8.43;2.80;;;21.80;66.00;;;;;;5135057;27;20212;-55
2023/08/02 04:53:54;;;;;;;15.35;3.42;;;21.80;66.00;;;;;;5135152;27;20191;-59
2023/08/02 04:56:21;;;;;;;7.63;2.28;;;21.80;66.00;;;;;;5135181;27;20184;-57
2023/08/02 04:58:50;;;;;;;10.15;2.20;;;21.80;66.00;;;;;;5134904;27;20242;-57
2023/08/02 05:01:18;;;;;;;8.38;2.55;;;21.80;66.00;;;;;;5134877;27;20221;-57
2023/08/02 05:03:48;;;;;;;8.43;3.13;;;21.80;66.00;;;;;;5134561;27;20189;-59
2023/08/02 05:06:15;;;;;;;11.50;2.67;;;21.80;66.00;;;;;;5134238;27;20193;-56
2023/08/02 05:08:43;;;;;;;9.10;2.63;;;21.80;65.90;;;;;;5134831;27;20188;-57
2023/08/02 05:11:11;;;;;;;10.55;2.97;;;21.80;65.90;;;;;;5134829;27;20218;-59
2023/08/02 05:13:38;;;;;;;9.68;2.40;;;21.80;65.90;;;;;;5134673;27;20217;-59
2023/08/02 05:16:13;;;;;;;13.48;2.92;;;21.80;65.90;;;;;;5134866;27;20192;-58
2023/08/02 05:18:41;;;;;;;10.80;3.88;;;21.80;66.00;;;;;;5134191;27;20294;-57
2023/08/02 05:21:12;;;;;;;9.52;2.47;;;21.80;65.90;;;;;;5134367;27;20231;-58
2023/08/02 05:23:40;;;;;;;11.20;2.65;;;21.70;65.80;;;;;;5134452;27;20300;-57
2023/08/02 05:26:12;;;;;;;9.45;2.22;;;21.80;65.90;;;;;;5134496;27;20184;-54
2023/08/02 05:28:41;;;;;;;10.45;2.38;;;21.80;65.90;;;;;;5134424;27;20226;-58
2023/08/02 05:31:15;;;;;;;7.35;2.35;;;21.80;65.90;;;;;;5134314;27;20195;-59
2023/08/02 05:37:03;;;;;;;9.45;2.55;;;21.80;65.90;;;;;;5070563;28;20277;-58
2023/08/02 05:39:30;;;;;;;9.30;2.20;;;21.80;65.80;;;;;;5131386;27;20228;-54
2023/08/02 05:41:58;;;;;;;5.47;2.17;;;21.70;65.70;;;;;;5133816;27;20255;-58
2023/08/02 05:44:25;;;;;;;7.25;1.95;;;21.70;65.70;;;;;;5133640;27;20188;-58
2023/08/02 05:46:54;;;;;;;9.52;2.70;;;21.70;65.70;;;;;;5134074;27;20208;-57
2023/08/02 05:49:22;;;;;;;8.68;2.08;;;21.70;65.70;;;;;;5133919;27;20189;-57
2023/08/02 05:51:52;;;;;;;7.22;2.25;;;21.70;65.60;;;;;;5133730;27;20220;-56
2023/08/02 05:54:21;;;;;;;10.88;2.67;;;21.70;65.60;;;;;;5133922;27;20195;-56
2023/08/02 05:56:48;;;;;;;8.95;1.95;;;21.70;65.50;;;;;;5133661;27;20261;-54
2023/08/02 05:59:16;;;;;;;7.10;1.90;;;21.70;65.50;;;;;;5133730;27;20212;-57
2023/08/02 06:01:43;;;;;;;9.25;2.58;;;21.70;65.50;;;;;;5133838;27;20184;-59
2023/08/02 06:04:13;;;;;;;7.68;2.10;;;21.70;65.50;;;;;;5133688;27;20180;-56
2023/08/02 06:06:40;;;;;;;8.68;2.40;;;21.70;65.50;;;;;;5133599;27;20188;-57
2023/08/02 06:09:08;;;;;;;5.65;1.88;;;21.70;65.50;;;;;;5133631;27;20185;-56
2023/08/02 06:11:36;;;;;;;11.60;2.58;;;21.70;65.50;;;;;;5133564;27;20216;-59
2023/08/02 06:14:04;;;;;;;9.32;2.10;;;21.70;65.40;;;;;;5133773;27;20611;-55
2023/08/02 06:16:31;;;;;;;6.35;2.17;;;21.70;65.40;;;;;;5133727;27;20181;-60
2023/08/02 06:18:59;;;;;;;9.98;2.50;;;21.70;65.30;;;;;;5133186;27;20192;-59
2023/08/02 06:21:31;;;;;;;7.80;2.15;;;21.70;65.30;;;;;;5133073;27;20216;-58
2023/08/02 06:23:58;;;;;;;6.30;1.75;;;21.70;65.30;;;;;;5133647;27;20180;-60
2023/08/02 06:26:26;;;;;;;6.25;1.88;;;21.70;65.30;;;;;;5133494;27;20266;-54
2023/08/02 06:28:56;;;;;;;6.00;2.20;;;21.70;65.30;;;;;;5133745;27;20219;-59
2023/08/02 06:31:23;;;;;;;7.68;2.25;;;21.70;65.30;;;;;;5133004;27;20245;-56
2023/08/02 06:33:51;;;;;;;8.77;2.40;;;21.70;65.20;;;;;;5133168;27;20328;-54
2023/08/02 06:36:18;;;;;;;9.18;2.10;;;21.70;65.20;;;;;;5133529;27;20200;-60
2023/08/02 06:38:47;;;;;;;7.97;1.63;;;21.70;65.90;;;;;;5133051;28;20216;-58
2023/08/02 06:41:15;;;;;;;8.70;2.00;;;21.70;65.10;;;;;;5133163;28;20277;-54
2023/08/02 06:43:43;;;;;;;7.18;1.75;;;21.70;65.10;;;;;;5133504;28;20214;-58
2023/08/02 06:46:10;;;;;;;5.93;1.75;;;21.70;65.00;;;;;;5133207;28;20189;-55
2023/08/02 06:48:38;;;;;;;8.57;1.90;;;21.70;65.00;;;;;;5133295;28;20212;-55
2023/08/02 06:51:06;;;;;;;6.97;1.95;;;21.70;65.00;;;;;;5136448;27;20196;-59
2023/08/02 06:59:39;;;;;;;5.40;1.77;;;21.70;65.00;;;;;;5094637;27;20230;-60
2023/08/02 07:02:22;;;;;;;7.47;2.05;;;21.80;65.20;;;;;;5119735;27;20216;-57
2023/08/02 07:04:50;;;;;;;7.68;2.10;;;21.80;65.10;;;;;;5125920;27;20201;-58
2023/08/02 07:07:17;;;;;;;5.70;1.80;;;21.90;65.10;;;;;;5129092;27;22071;-57
2023/08/02 07:09:49;;;;;;;8.45;2.10;;;21.90;65.10;;;;;;5121261;27;20196;-59
2023/08/02 07:12:16;;;;;;;6.43;1.92;;;22.00;65.00;;;;;;5120948;27;20306;-60
2023/08/02 07:14:53;;;;;;;8.50;2.13;;;22.00;64.90;;;;;;5132796;27;20192;-57
2023/08/02 07:17:22;;;;;;;8.88;1.95;;;22.10;65.00;;;;;;5132060;27;20638;-59
2023/08/02 07:20:03;;;;;;;5.43;2.10;;;22.20;65.30;;;;;;5131585;27;20220;-58
2023/08/02 07:22:30;;;;;;;10.95;2.30;;;22.20;65.20;;;;;;5128504;27;20762;-60
2023/08/02 07:24:58;;;;;;;8.50;2.22;;;22.30;65.20;;;;;;5131727;27;20196;-60
2023/08/02 07:27:50;;;;;;;11.40;2.45;;;22.30;65.10;;;;;;5131834;27;20256;-56
2023/08/02 07:30:20;;;;;;;6.70;1.90;;;22.40;65.00;;;;;;5132106;27;20274;-57
2023/08/02 07:32:47;;;;;;;8.15;1.95;;;22.40;64.80;;;;;;5131740;27;20223;-58
2023/08/02 07:35:15;;;;;;;9.98;2.40;;;22.50;64.90;;;;;;5131226;27;20227;-55
2023/08/02 07:37:42;;;;;;;7.60;2.10;;;22.50;64.90;;;;;;5131771;27;20311;-57
2023/08/02 07:40:10;;;;;;;7.93;1.83;;;22.50;64.80;;;;;;5132047;27;20200;-57
2023/08/02 07:42:38;;;;;;;11.10;2.95;;;22.50;64.60;;;;;;5124546;27;20220;-57
2023/08/02 07:45:07;;;;;;;9.65;1.95;;;22.60;64.50;;;;;;5115537;27;20208;-58
2023/08/02 07:47:40;;;;;;;7.22;2.35;;;22.60;64.40;;;;;;5120414;27;20220;-57
2023/08/02 07:50:13;;;;;;;10.23;2.55;;;22.60;64.60;;;;;;5128779;27;20193;-55
2023/08/02 07:52:46;;;;;;;13.13;3.08;;;22.70;64.40;;;;;;5112556;27;20223;-58
2023/08/02 07:55:13;;;;;;;7.47;2.40;;;22.60;64.40;;;;;;5131322;27;20188;-57
2023/08/02 07:57:41;;;;;;;11.13;2.30;;;22.70;64.60;;;;;;5130682;27;20219;-56
2023/08/02 08:00:10;;;;;;;9.13;2.10;;;22.70;64.60;;;;;;5130938;27;20359;-55
2023/08/02 08:02:39;;;;;;;12.48;2.50;;;22.70;64.00;;;;;;5125494;27;20217;-57
2023/08/02 08:05:08;;;;;;;9.50;1.83;;;22.70;63.90;;;;;;5124884;27;20200;-55
2023/08/02 08:07:50;;;;;;;9.88;2.20;;;22.70;63.80;;;;;;5127941;27;20312;-59
2023/08/02 08:10:17;;;;;;;12.30;2.70;;;22.70;63.60;;;;;;5109475;27;20260;-58
2023/08/02 08:12:45;;;;;;;11.30;2.53;;;22.70;63.90;;;;;;5129949;27;20252;-57
2023/08/02 08:15:12;;;;;;;9.13;2.35;;;22.70;63.80;;;;;;5129710;27;20237;-56
2023/08/02 08:17:40;;;;;;;15.88;2.83;;;22.70;64.00;;;;;;5129878;27;20224;-56
2023/08/02 08:20:09;;;;;;;13.07;2.45;;;22.70;64.00;;;;;;5111338;27;20209;-57
2023/08/02 08:22:36;;;;;;;8.68;2.53;;;22.70;64.00;;;;;;5130304;27;20216;-59
2023/08/02 08:25:06;;;;;;;11.27;2.30;;;22.80;64.70;;;;;;5129752;27;20197;-58
2023/08/02 08:27:35;;;;;;;11.13;2.45;;;22.80;63.90;;;;;;5114487;27;20283;-56
2023/08/02 08:30:20;;;;;;;8.73;2.38;;;22.80;63.70;;;;;;5130391;27;20197;-57
2023/08/02 08:32:49;;;;;;;8.88;2.08;;;22.80;63.70;;;;;;5129214;27;20220;-58
2023/08/02 08:35:16;;;;;;;11.30;2.42;;;22.80;63.40;;;;;;5129679;27;20228;-56
2023/08/02 08:37:43;;;;;;;13.77;2.83;;;22.80;63.40;;;;;;5117507;27;20217;-57
2023/08/02 08:40:21;;;;;;;11.18;2.80;;;22.80;63.20;;;;;;5129846;27;20621;-57
2023/08/02 08:42:57;;;;;;;10.10;2.38;;;22.90;63.20;;;;;;5129298;27;20712;-56
2023/08/02 08:45:25;;;;;;;8.75;2.65;;;22.90;63.20;;;;;;5092770;27;20587;-58
2023/08/02 08:47:54;;;;;;;10.13;2.75;;;22.90;63.20;;;;;;5128956;27;20742;-57
2023/08/02 08:50:22;;;;;;;9.63;2.13;;;22.90;63.20;;;;;;5097665;27;20276;-57
2023/08/02 08:52:51;;;;;;;7.90;2.80;;;22.90;63.00;;;;;;5129801;27;20212;-58
2023/08/02 08:55:19;;;;;;;11.02;2.15;;;22.90;62.80;;;;;;5130250;27;20191;-58
2023/08/02 08:57:49;;;;;;;8.85;2.15;;;22.90;62.70;;;;;;5098588;27;20224;-59
2023/08/02 09:00:17;;;;;;;6.97;1.98;;;22.90;62.60;;;;;;5109235;28;20217;-57
2023/08/02 09:02:46;;;;;;;9.00;2.20;;;22.90;62.60;;;;;;5104612;28;20344;-58
2023/08/02 09:05:15;;;;;;;10.15;2.38;;;22.90;62.60;;;;;;5101229;28;20697;-58
2023/08/02 09:07:42;;;;;;;7.10;2.00;;;22.90;62.60;;;;;;5123412;27;20340;-58
2023/08/02 09:10:10;;;;;;;10.88;2.20;;;22.90;62.60;;;;;;5113581;27;20213;-59
2023/08/02 09:12:44;;;;;;;7.40;2.03;;;22.90;62.50;;;;;;5127738;27;20229;-59
2023/08/02 09:15:13;;;;;;;12.15;2.13;;;22.90;62.50;;;;;;5120418;27;20268;-57
2023/08/02 09:17:48;;;;;;;7.25;2.42;;;22.90;62.30;;;;;;5110926;27;20301;-59
2023/08/02 09:20:18;;;;;;;5.50;2.08;;;22.90;62.30;;;;;;5109131;28;20217;-58
2023/08/02 09:22:45;;;;;;;7.78;1.92;;;22.90;62.20;;;;;;5128061;27;20223;-57
2023/08/02 09:25:23;;;;;;;7.03;2.20;;;23.00;62.20;;;;;;5119879;27;20197;-57
2023/08/02 09:27:51;;;;;;;10.20;2.30;;;22.90;62.00;;;;;;5127761;27;20212;-58
2023/08/02 09:30:27;;;;;;;9.77;2.22;;;22.90;62.00;;;;;;5129088;27;20279;-59
2023/08/02 09:33:05;;;;;;;10.43;2.50;;;22.90;62.00;;;;;;5127905;27;20568;-56
2023/08/02 09:35:50;;;;;;;6.63;2.55;;;22.90;61.90;;;;;;5129089;27;20609;-57
2023/08/02 09:38:17;;;;;;;11.65;2.50;;;22.90;61.80;;;;;;5119336;27;20220;-60
2023/08/02 09:40:47;;;;;;;9.93;2.15;;;23.00;62.70;;;;;;5128526;27;20557;-54
2023/08/02 09:43:15;;;;;;;11.30;2.65;;;22.90;61.80;;;;;;5128257;27;20208;-62
2023/08/02 09:45:42;;;;;;;7.97;2.50;;;22.90;61.70;;;;;;5128439;27;20284;-58
2023/08/02 09:48:09;;;;;;;13.00;2.35;;;22.90;61.60;;;;;;5127161;27;20295;-58
2023/08/02 09:51:03;;;;;;;10.05;2.22;;;22.90;61.40;;;;;;5109081;28;20276;-58
2023/08/02 09:53:33;;;;;;;9.93;2.33;;;22.90;61.40;;;;;;5128848;27;20299;-59
2023/08/02 09:56:04;;;;;;;8.02;2.10;;;22.90;61.40;;;;;;5095948;27;20196;-58
2023/08/02 09:58:34;;;;;;;10.57;2.72;;;23.00;61.50;;;;;;5117824;27;20220;-58
2023/08/02 10:01:04;;;;;;;8.35;2.05;;;22.90;62.20;;;;;;5127737;27;20846;-57
2023/08/02 10:03:32;;;;;;;9.30;2.60;;;22.90;61.30;;;;;;5128056;27;20218;-58
2023/08/02 10:06:10;;;;;;;9.73;2.47;;;22.90;61.30;;;;;;5103018;27;20998;-49
2023/08/02 10:08:40;;;;;;;9.77;2.40;;;23.00;61.40;;;;;;5098732;28;20311;-60
2023/08/02 10:11:08;;;;;;;11.48;2.20;;;22.90;61.20;;;;;;5108955;27;20192;-58
2023/08/02 10:13:39;;;;;;;9.23;2.58;;;22.90;61.10;;;;;;5120623;27;20213;-61
2023/08/02 10:16:06;;;;;;;9.52;2.13;;;23.00;61.20;;;;;;5109998;27;20284;-58
2023/08/02 10:18:35;;;;;;;9.65;2.33;;;22.90;61.00;;;;;;5128523;27;20311;-62
2023/08/02 10:21:06;;;;;;;10.93;2.30;;;22.90;61.00;;;;;;5127819;27;20292;-63
2023/08/02 10:23:34;;;;;;;8.80;2.38;;;22.90;61.10;;;;;;5128201;27;20216;-59
2023/08/02 10:26:01;;;;;;;8.07;1.92;;;22.90;61.00;;;;;;5114282;27;20224;-64
2023/08/02 10:28:30;;;;;;;9.07;2.20;;;22.90;61.00;;;;;;5128572;27;20217;-63
2023/08/02 10:30:58;;;;;;;12.75;2.85;;;22.90;61.10;;;;;;5114861;27;20194;-59
2023/08/02 10:33:25;;;;;;;9.43;3.83;;;22.90;61.00;;;;;;5128068;27;20288;-57
2023/08/02 10:35:56;;;;;;;8.02;3.50;;;22.80;60.90;;;;;;5127176;27;20196;-62
2023/08/02 10:38:28;;;;;;;12.27;4.22;;;22.90;61.00;;;;;;5105582;28;20231;-63
2023/08/02 10:41:03;;;;;;;29.50;19.60;;;22.90;61.00;;;;;;5105043;28;20783;-61
2023/08/02 10:43:30;;;;;;;26.38;20.05;;;22.90;60.90;;;;;;5102335;28;20219;-59
2023/08/02 10:46:19;;;;;;;33.17;23.52;;;22.80;60.70;;;;;;5106832;28;20208;-64
2023/08/02 10:48:55;;;;;;;47.53;37.17;;;22.90;60.80;;;;;;5104423;28;20217;-57
2023/08/02 10:51:37;;;;;;;50.90;38.63;;;22.80;60.60;;;;;;5110812;28;20272;-58
2023/08/02 10:54:21;;;;;;;41.30;31.90;;;22.90;60.70;;;;;;5128266;28;20640;-60
2023/08/02 10:57:12;;;;;;;37.30;25.83;;;22.80;60.50;;;;;;5127829;28;20709;-63
2023/08/02 10:59:40;;;;;;;30.17;19.73;;;22.80;60.50;;;;;;5122397;28;20251;-64
2023/08/02 11:02:09;;;;;;;28.50;18.88;;;22.90;60.60;;;;;;5127395;28;20291;-62
2023/08/02 11:04:38;;;;;;;24.77;16.48;;;22.90;60.60;;;;;;5125799;28;20220;-57
2023/08/02 11:07:12;;;;;;;25.10;12.63;;;22.80;60.50;;;;;;5095472;28;20276;-60
2023/08/02 11:09:44;;;;;;;24.58;8.75;;;22.90;60.90;;;;;;5106335;28;20225;-56
2023/08/02 11:12:14;;;;;;;22.38;6.82;;;22.80;60.40;;;;;;5107722;28;20189;-60
2023/08/02 11:14:43;;;;;;;20.52;6.72;;;22.70;60.40;;;;;;5107677;28;20216;-63
2023/08/02 11:17:12;;;;;;;20.20;5.55;;;22.60;60.60;;;;;;5107574;28;20185;-58
2023/08/02 11:19:46;;;;;;;16.02;5.03;;;22.50;61.50;;;;;;5107459;28;20589;-58
2023/08/02 11:22:14;;;;;;;19.60;4.90;;;22.30;62.30;;;;;;5107140;28;20209;-58
2023/08/02 11:24:50;;;;;;;18.77;4.95;;;22.20;62.50;;;;;;5106615;28;20304;-57
2023/08/02 11:27:20;;;;;;;23.67;4.40;;;22.20;63.10;;;;;;5102682;28;20193;-54
2023/08/02 11:29:58;;;;;;;15.18;4.20;;;21.90;63.10;;;;;;5106894;28;20274;-57
2023/08/02 11:32:26;;;;;;;15.25;3.80;;;21.90;63.10;;;;;;5107718;28;20190;-59
2023/08/02 11:34:54;;;;;;;18.08;3.47;;;21.80;63.30;;;;;;5106914;28;20233;-59
2023/08/02 11:37:24;;;;;;;21.73;4.45;;;21.80;63.30;;;;;;5105822;27;20305;-56
2023/08/02 11:40:37;;;;;;;17.52;3.10;;;21.80;63.40;;;;;;5057635;28;20233;-58
2023/08/02 11:43:04;;;;;;;15.63;3.63;;;21.70;63.60;;;;;;5104022;28;20213;-57
2023/08/02 11:46:09;;;;;;;15.60;3.65;;;21.60;63.80;;;;;;5110923;28;20192;-62
2023/08/02 11:49:06;;;;;;;14.07;3.47;;;21.60;63.90;;;;;;5099018;28;20220;-59
2023/08/02 11:51:33;;;;;;;12.40;2.95;;;21.70;64.00;;;;;;5100124;28;20209;-59
2023/08/02 11:54:01;;;;;;;14.57;3.28;;;21.80;63.70;;;;;;5106929;28;20220;-62
2023/08/02 11:56:33;;;;;;;8.77;2.60;;;21.90;63.50;;;;;;5109104;28;20274;-62
2023/08/02 11:59:01;;;;;;;12.43;3.20;;;21.90;63.20;;;;;;5101797;28;20224;-64
2023/08/02 12:01:32;;;;;;;10.18;2.67;;;22.10;63.10;;;;;;5108610;28;20220;-59
2023/08/02 12:06:58;;;;;;;12.90;3.20;;;22.30;62.90;;;;;;5035197;28;20203;-58
2023/08/02 12:13:02;;;;;;;8.82;3.08;;;22.40;62.90;;;;;;5026821;28;20281;-63
2023/08/02 12:15:30;;;;;;;12.18;3.03;;;22.40;63.40;;;;;;5039405;28;20274;-56
2023/08/02 12:21:15;;;;;;;9.77;2.70;;;22.50;62.90;;;;;;5032875;28;20313;-55
2023/08/02 12:23:43;;;;;;;10.48;3.08;;;22.50;62.90;;;;;;5041323;28;20581;-58
2023/08/02 12:26:10;;;;;;;9.73;2.50;;;22.50;62.80;;;;;;5043527;28;20199;-60
2023/08/02 12:32:35;;;;;;;9.73;3.30;;;22.60;63.00;;;;;;5103183;28;20222;-53
2023/08/02 12:35:07;;;;;;;14.60;6.65;;;22.60;62.90;;;;;;5043319;28;20283;-57
2023/08/02 12:37:35;;;;;;;16.73;10.93;;;22.60;62.90;;;;;;5065950;28;20194;-60
2023/08/02 12:40:03;;;;;;;17.77;10.38;;;22.60;62.90;;;;;;5072623;28;20218;-55
2023/08/02 12:42:30;;;;;;;24.00;14.65;;;22.70;62.90;;;;;;5064530;28;20361;-57
2023/08/02 12:45:41;;;;;;;45.33;31.55;;;22.70;62.80;;;;;;5082814;28;20537;-58
2023/08/02 12:48:17;;;;;;;34.33;23.77;;;22.70;62.70;;;;;;5054638;28;20278;-58
2023/08/02 12:50:48;;;;;;;30.42;21.35;;;22.70;62.70;;;;;;5040530;28;20214;-57
2023/08/02 12:53:21;;;;;;;22.58;14.27;;;22.70;62.60;;;;;;5053796;28;20203;-56
2023/08/02 12:55:49;;;;;;;21.17;12.65;;;22.70;63.10;;;;;;5056850;28;20224;-55
2023/08/02 13:01:36;;;;;;;21.90;11.50;;;22.80;63.40;;;;;;5021653;28;21097;-57
2023/08/02 13:04:41;;;;;;;19.13;11.05;;;22.80;63.20;;;;;;5009734;28;20260;-57
2023/08/02 13:07:14;;;;;;;17.02;9.18;;;22.80;63.20;;;;;;5057683;28;20258;-53
2023/08/02 13:09:41;;;;;;;20.05;9.70;;;22.80;63.10;;;;;;5092957;27;20277;-56
2023/08/02 13:15:08;;;;;;;17.23;8.82;;;22.90;63.30;;;;;;5067894;27;20273;-54
2023/08/02 13:17:42;;;;;;;14.55;8.15;;;22.90;63.30;;;;;;5069600;27;20313;-55
2023/08/02 13:20:19;;;;;;;16.25;7.68;;;22.90;63.20;;;;;;5126894;27;20605;-58
2023/08/02 13:23:23;;;;;;;12.32;6.70;;;23.00;63.40;;;;;;5134193;27;20215;-55
2023/08/02 13:25:51;;;;;;;13.07;7.47;;;23.00;63.40;;;;;;5130189;27;20213;-55
2023/08/02 13:28:35;;;;;;;17.02;7.70;;;23.00;63.30;;;;;;5141438;27;20274;-51
2023/08/02 13:31:07;;;;;;;13.57;7.00;;;23.00;63.20;;;;;;5035523;27;20326;-57
2023/08/02 13:33:51;;;;;;;13.15;6.53;;;23.00;63.20;;;;;;5125556;27;20394;-59
2023/08/02 13:43:01;;;;;;;17.42;6.10;;;23.00;63.00;;;;;;5066458;28;20797;-57
2023/08/02 13:45:36;;;;;;;17.80;6.13;;;23.00;64.80;;;;;;5056516;28;20223;-57
2023/08/02 13:48:05;;;;;;;15.18;6.20;;;23.10;65.40;;;;;;5060960;28;20194;-53
2023/08/02 13:50:37;;;;;;;15.15;5.53;;;23.10;65.10;;;;;;5070457;28;21167;-53